Time;durP1;ratioP1;P1;durP2;ratioP2;P2;SDS_P1;SDS_P2;PMS_P1;PMS_P2;Temp;Humidity;BMP_temperature;BMP_pressure;BME280_temperature;BME280_humidity;BME280_pressure;Samples;Min_cycle;Max_cycle;Signal;HPM_P1;HPM_P2
2022/05/07 00:02:27;;;;;;;1.27;0.20;;;14.20;99.90;;;;;;5022274;28;20062;-68
2022/05/07 00:04:54;;;;;;;0.93;0.20;;;14.10;99.90;;;;;;5025335;28;20386;-68
2022/05/07 00:07:21;;;;;;;0.77;0.40;;;14.30;99.90;;;;;;5023579;28;20025;-67
2022/05/07 00:09:48;;;;;;;1.75;0.10;;;14.40;99.90;;;;;;5029578;28;20033;-68
2022/05/07 00:12:16;;;;;;;2.05;0.20;;;14.30;99.90;;;;;;5026685;28;20148;-68
2022/05/07 00:14:43;;;;;;;1.67;0.22;;;14.40;99.90;;;;;;5016454;28;20018;-68
2022/05/07 00:19:56;;;;;;;1.15;0.15;;;14.40;99.90;;;;;;5023464;28;20033;-67
2022/05/07 00:22:23;;;;;;;0.88;0.30;;;14.30;99.90;;;;;;5031893;28;20057;-68
2022/05/07 00:24:51;;;;;;;1.00;0.10;;;14.40;99.90;;;;;;5020961;28;20026;-68
2022/05/07 00:27:18;;;;;;;2.30;0.52;;;14.40;99.90;;;;;;5023590;28;20018;-68
2022/05/07 00:29:45;;;;;;;1.10;0.17;;;14.60;99.90;;;;;;5022855;28;20120;-68
2022/05/07 00:32:12;;;;;;;1.02;0.10;;;14.70;99.90;;;;;;5022599;28;20486;-68
2022/05/07 00:34:40;;;;;;;0.40;0.20;;;15.10;99.90;;;;;;5015419;28;20105;-68
2022/05/07 00:37:07;;;;;;;1.65;0.22;;;15.40;99.90;;;;;;5021582;28;20033;-68
2022/05/07 00:39:34;;;;;;;0.70;0.30;;;15.20;99.10;;;;;;5016358;28;20040;-68
2022/05/07 00:42:06;;;;;;;3.05;0.40;;;15.00;99.10;;;;;;5021176;28;20021;-68
2022/05/07 00:44:34;;;;;;;0.70;0.20;;;15.10;99.30;;;;;;5022521;28;20037;-67
2022/05/07 00:47:23;;;;;;;1.08;0.20;;;14.90;99.10;;;;;;5032606;28;20083;-68
2022/05/07 00:49:54;;;;;;;0.30;0.10;;;14.40;99.60;;;;;;5027386;28;20021;-67
2022/05/07 00:52:21;;;;;;;0.50;0.20;;;14.30;99.00;;;;;;5012829;28;20120;-68
2022/05/07 00:54:49;;;;;;;1.63;0.20;;;14.50;99.90;;;;;;5024770;28;20033;-68
2022/05/07 00:57:17;;;;;;;1.65;0.20;;;14.60;99.70;;;;;;5028688;28;20428;-68
2022/05/07 00:59:45;;;;;;;1.52;0.20;;;14.70;99.90;;;;;;5017077;28;20045;-68
2022/05/07 01:02:12;;;;;;;2.28;0.20;;;14.80;99.90;;;;;;5022955;28;20484;-69
2022/05/07 01:04:39;;;;;;;1.88;0.30;;;14.80;99.50;;;;;;5014356;28;20057;-69
2022/05/07 01:07:06;;;;;;;6.30;0.20;;;15.10;99.90;;;;;;5014051;28;20026;-68
2022/05/07 01:09:36;;;;;;;0.88;0.20;;;15.50;99.90;;;;;;5023162;28;20026;-68
2022/05/07 01:12:04;;;;;;;0.70;0.10;;;15.60;99.90;;;;;;5023797;28;20037;-68
2022/05/07 01:14:31;;;;;;;2.60;0.20;;;15.50;99.40;;;;;;5025213;28;20067;-68
2022/05/07 01:16:58;;;;;;;1.55;0.20;;;15.50;99.10;;;;;;5032548;28;20030;-67
2022/05/07 01:19:25;;;;;;;1.98;0.28;;;15.60;99.90;;;;;;5015397;28;20478;-67
2022/05/07 01:21:53;;;;;;;1.17;0.10;;;15.50;99.40;;;;;;5031476;28;20021;-68
2022/05/07 01:24:20;;;;;;;1.27;0.20;;;14.90;98.90;;;;;;5024355;28;20231;-68
2022/05/07 01:26:47;;;;;;;2.83;0.22;;;15.20;99.90;;;;;;5026605;28;20508;-67
2022/05/07 01:29:15;;;;;;;0.40;0.20;;;15.40;99.40;;;;;;5023768;28;20032;-67
2022/05/07 01:31:42;;;;;;;1.67;0.30;;;15.10;99.70;;;;;;5018457;28;20026;-67
2022/05/07 01:34:09;;;;;;;1.63;0.20;;;15.10;99.60;;;;;;5020104;28;20036;-68
2022/05/07 01:36:36;;;;;;;0.95;0.20;;;15.20;99.70;;;;;;5023601;28;20122;-68
2022/05/07 01:39:04;;;;;;;1.00;0.20;;;15.30;99.70;;;;;;5019303;28;20034;-68
2022/05/07 01:41:31;;;;;;;0.65;0.30;;;15.40;99.80;;;;;;5021060;28;20030;-68
2022/05/07 01:43:58;;;;;;;1.20;0.40;;;15.60;99.50;;;;;;5025186;28;20603;-68
2022/05/07 01:49:12;;;;;;;2.25;0.20;;;15.80;99.30;;;;;;5020734;28;20163;-68
2022/05/07 01:51:39;;;;;;;1.60;0.30;;;15.80;98.80;;;;;;5018715;28;20064;-68
2022/05/07 01:54:08;;;;;;;1.80;0.20;;;15.70;99.00;;;;;;5017030;28;20033;-68
2022/05/07 01:56:35;;;;;;;3.28;0.40;;;15.70;99.00;;;;;;5020855;28;20044;-68
2022/05/07 01:59:06;;;;;;;2.05;0.32;;;16.20;99.60;;;;;;5022033;28;20496;-68
2022/05/07 02:01:33;;;;;;;1.88;0.60;;;16.60;99.20;;;;;;5020471;28;20371;-68
2022/05/07 02:04:00;;;;;;;1.95;0.40;;;16.70;99.10;;;;;;5019666;28;20018;-68
2022/05/07 02:06:27;;;;;;;3.28;0.63;;;16.70;99.00;;;;;;5018407;28;20375;-69
2022/05/07 02:08:55;;;;;;;0.60;0.20;;;16.90;98.50;;;;;;5023105;28;20474;-69
2022/05/07 02:11:22;;;;;;;0.82;0.30;;;16.60;98.70;;;;;;5024130;28;20474;-69
2022/05/07 02:13:50;;;;;;;4.13;0.55;;;16.80;98.50;;;;;;5022357;28;20401;-68
2022/05/07 02:16:17;;;;;;;4.03;0.43;;;16.80;98.60;;;;;;5020043;28;20044;-69
2022/05/07 02:18:44;;;;;;;1.52;0.22;;;16.70;98.60;;;;;;5019300;28;20030;-68
2022/05/07 02:21:11;;;;;;;1.70;0.30;;;16.80;99.10;;;;;;5020830;28;20034;-70
2022/05/07 02:23:38;;;;;;;0.93;0.43;;;17.20;98.50;;;;;;5020333;28;20024;-67
2022/05/07 02:26:06;;;;;;;1.85;0.20;;;17.10;98.40;;;;;;5023232;28;20028;-66
2022/05/07 02:28:33;;;;;;;3.13;0.35;;;17.30;99.80;;;;;;5022450;28;20060;-66
2022/05/07 02:31:00;;;;;;;4.28;0.52;;;17.00;98.10;;;;;;5019100;28;20091;-66
2022/05/07 02:33:28;;;;;;;2.63;0.30;;;17.10;98.20;;;;;;5015164;28;20080;-66
2022/05/07 02:35:55;;;;;;;1.48;0.65;;;17.30;98.40;;;;;;5020685;28;20029;-66
2022/05/07 02:38:22;;;;;;;1.30;0.20;;;17.30;98.40;;;;;;5020573;28;20068;-66
2022/05/07 02:43:35;;;;;;;0.45;0.10;;;17.70;99.20;;;;;;5022017;28;20689;-66
2022/05/07 02:46:02;;;;;;;1.92;0.30;;;17.20;97.80;;;;;;5026268;28;20021;-66
2022/05/07 02:48:35;;;;;;;3.03;0.20;;;17.10;98.30;;;;;;5024518;28;20028;-67
2022/05/07 02:51:03;;;;;;;2.25;0.25;;;17.40;98.20;;;;;;5016564;28;20064;-67
2022/05/07 02:53:30;;;;;;;0.75;0.28;;;17.60;98.30;;;;;;5021895;28;20034;-67
2022/05/07 02:55:58;;;;;;;1.13;0.30;;;17.50;98.40;;;;;;5026285;28;20116;-67
2022/05/07 02:58:25;;;;;;;1.48;0.40;;;17.60;98.20;;;;;;5019026;28;20037;-67
2022/05/07 03:00:53;;;;;;;2.13;0.30;;;17.80;98.20;;;;;;5016193;28;20032;-67
2022/05/07 03:03:20;;;;;;;2.08;0.25;;;17.90;97.60;;;;;;5019736;28;20042;-67
2022/05/07 03:05:48;;;;;;;1.98;0.20;;;17.70;98.00;;;;;;5020584;28;20413;-67
2022/05/07 03:08:15;;;;;;;1.45;0.15;;;17.50;97.70;;;;;;5019007;28;20493;-67
2022/05/07 03:10:42;;;;;;;1.65;0.38;;;17.60;97.90;;;;;;5022870;28;20026;-67
2022/05/07 03:13:09;;;;;;;1.90;0.22;;;18.00;98.20;;;;;;5024263;28;20057;-68
2022/05/07 03:15:37;;;;;;;4.82;0.57;;;18.20;97.60;;;;;;5020538;28;20026;-67
2022/05/07 03:18:04;;;;;;;3.92;0.32;;;17.60;97.20;;;;;;5024099;28;20374;-67
2022/05/07 03:20:32;;;;;;;1.90;0.40;;;17.90;97.80;;;;;;5024954;28;20579;-67
2022/05/07 03:22:59;;;;;;;3.20;0.20;;;17.90;97.60;;;;;;5025867;28;20049;-67
2022/05/07 03:25:26;;;;;;;1.92;0.40;;;18.00;97.10;;;;;;5027953;28;20491;-68
2022/05/07 03:27:54;;;;;;;0.85;0.30;;;18.10;97.50;;;;;;5023161;28;20058;-68
2022/05/07 03:30:21;;;;;;;1.48;0.40;;;18.10;97.30;;;;;;5021504;28;20486;-68
2022/05/07 03:32:48;;;;;;;0.47;0.10;;;18.30;97.40;;;;;;5022552;28;20120;-68
2022/05/07 03:35:16;;;;;;;1.02;0.20;;;18.10;96.90;;;;;;5023280;28;20041;-68
2022/05/07 03:37:43;;;;;;;1.40;0.20;;;17.90;96.70;;;;;;5021534;28;20053;-68
2022/05/07 03:40:10;;;;;;;0.80;0.30;;;17.90;97.60;;;;;;5022843;28;20022;-68
2022/05/07 03:42:37;;;;;;;2.45;0.13;;;17.90;96.20;;;;;;5024892;28;20064;-68
2022/05/07 03:45:05;;;;;;;1.88;0.20;;;17.80;96.80;;;;;;5024566;28;20021;-68
2022/05/07 03:47:33;;;;;;;4.38;0.63;;;17.70;97.10;;;;;;5018882;28;20060;-68
2022/05/07 03:50:00;;;;;;;2.30;0.20;;;17.90;97.60;;;;;;5022293;28;20076;-68
2022/05/07 03:55:13;;;;;;;1.38;0.20;;;17.70;97.10;;;;;;5019306;28;20096;-68
2022/05/07 03:57:40;;;;;;;1.55;0.38;;;17.60;97.10;;;;;;5024793;28;20037;-68
2022/05/07 04:00:09;;;;;;;1.33;0.25;;;17.80;97.40;;;;;;5022606;28;20120;-68
2022/05/07 04:02:36;;;;;;;1.40;0.60;;;18.10;97.00;;;;;;5023040;28;20022;-68
2022/05/07 04:05:04;;;;;;;5.60;3.53;;;18.10;96.90;;;;;;5020630;28;20029;-68
2022/05/07 04:07:31;;;;;;;1.20;0.38;;;18.00;97.50;;;;;;5022136;28;20061;-68
2022/05/07 04:09:59;;;;;;;1.10;0.20;;;18.10;96.70;;;;;;5024856;28;20110;-68
2022/05/07 04:12:26;;;;;;;1.30;0.30;;;18.10;96.20;;;;;;5020229;28;20052;-68
2022/05/07 04:14:53;;;;;;;0.45;0.30;;;18.30;96.40;;;;;;5030604;28;20025;-68
2022/05/07 04:17:20;;;;;;;0.10;0.10;;;18.30;96.00;;;;;;5021737;28;20477;-68
2022/05/07 04:19:48;;;;;;;0.30;0.20;;;18.30;95.80;;;;;;5018662;28;20037;-68
2022/05/07 04:22:15;;;;;;;0.20;0.20;;;18.30;95.80;;;;;;5022529;28;20076;-68
2022/05/07 04:24:44;;;;;;;0.95;0.20;;;18.40;95.60;;;;;;5015312;28;20052;-68
2022/05/07 04:27:11;;;;;;;3.63;0.28;;;18.30;95.40;;;;;;5029106;28;20029;-67
2022/05/07 04:29:38;;;;;;;0.30;0.20;;;18.30;95.60;;;;;;5024536;28;20057;-68
2022/05/07 04:32:06;;;;;;;1.05;0.20;;;18.30;95.10;;;;;;5021398;28;20033;-67
2022/05/07 04:34:33;;;;;;;3.20;0.35;;;18.40;95.10;;;;;;5022295;28;20045;-68
2022/05/07 04:37:00;;;;;;;0.68;0.20;;;18.60;95.90;;;;;;5025053;28;20022;-68
2022/05/07 04:39:29;;;;;;;5.50;0.63;;;18.50;95.60;;;;;;5023435;28;20025;-68
2022/05/07 04:41:57;;;;;;;2.08;1.67;;;18.50;95.20;;;;;;5021474;28;20112;-67
2022/05/07 04:44:25;;;;;;;0.98;0.20;;;18.50;95.20;;;;;;5023588;28;20091;-68
2022/05/07 04:46:52;;;;;;;1.10;0.22;;;18.40;95.40;;;;;;5022371;28;20017;-68
2022/05/07 04:49:21;;;;;;;1.33;0.20;;;18.40;95.70;;;;;;5024949;28;20034;-69
2022/05/07 04:51:50;;;;;;;0.38;0.20;;;18.30;95.60;;;;;;5030661;28;20067;-68
2022/05/07 04:54:21;;;;;;;0.95;0.20;;;18.30;95.60;;;;;;5027328;28;20025;-68
2022/05/07 04:56:50;;;;;;;0.60;0.10;;;18.40;95.60;;;;;;5016271;28;20033;-68
2022/05/07 04:59:20;;;;;;;0.38;0.13;;;18.50;95.00;;;;;;5014514;28;20064;-68
2022/05/07 05:01:47;;;;;;;2.47;0.10;;;18.60;95.00;;;;;;5015377;28;20029;-68
2022/05/07 05:04:15;;;;;;;0.28;0.10;;;18.70;94.70;;;;;;5025092;28;20018;-68
2022/05/07 05:06:43;;;;;;;1.75;0.13;;;18.70;94.10;;;;;;5015973;28;20508;-68
2022/05/07 05:09:12;;;;;;;0.30;0.10;;;18.70;94.50;;;;;;5018017;28;20026;-68
2022/05/07 05:11:40;;;;;;;1.85;0.10;;;18.80;95.00;;;;;;5016212;28;20410;-68
2022/05/07 05:16:56;;;;;;;0.65;0.13;;;18.90;94.50;;;;;;5016660;28;20044;-69
2022/05/07 05:19:23;;;;;;;1.05;0.10;;;18.80;93.90;;;;;;5025230;28;20026;-68
2022/05/07 05:21:50;;;;;;;1.15;0.30;;;18.60;94.00;;;;;;5017326;28;20017;-68
2022/05/07 05:24:18;;;;;;;0.15;0.05;;;18.70;93.70;;;;;;5015594;28;20036;-68
2022/05/07 05:26:45;;;;;;;0.55;0.10;;;18.50;93.10;;;;;;5023813;28;20021;-68
2022/05/07 05:29:12;;;;;;;1.38;0.20;;;18.40;93.30;;;;;;5024633;28;20041;-68
2022/05/07 05:31:39;;;;;;;0.75;0.10;;;18.40;94.30;;;;;;5030233;28;20477;-68
2022/05/07 05:34:07;;;;;;;0.63;0.30;;;18.40;94.00;;;;;;5023224;28;20393;-68
2022/05/07 05:36:34;;;;;;;0.20;0.00;;;18.30;93.90;;;;;;5028196;28;20040;-68
2022/05/07 05:39:05;;;;;;;1.95;0.10;;;18.30;93.20;;;;;;5018351;28;20022;-68
2022/05/07 05:41:33;;;;;;;1.60;0.20;;;18.20;93.20;;;;;;5027235;28;20030;-68
2022/05/07 05:44:00;;;;;;;1.33;0.10;;;18.30;92.90;;;;;;5023676;28;20378;-68
2022/05/07 05:46:28;;;;;;;0.32;0.10;;;18.30;92.40;;;;;;5015844;28;20371;-68
2022/05/07 05:48:55;;;;;;;1.75;0.10;;;18.30;92.30;;;;;;5013578;28;20446;-68
2022/05/07 05:51:22;;;;;;;1.23;0.10;;;18.30;92.50;;;;;;5016406;28;20046;-68
2022/05/07 05:53:50;;;;;;;0.75;0.10;;;18.40;92.50;;;;;;5017377;28;20508;-67
2022/05/07 05:56:21;;;;;;;1.40;0.10;;;18.30;93.20;;;;;;5023099;28;20034;-68
2022/05/07 05:58:48;;;;;;;0.25;0.00;;;18.30;92.80;;;;;;5023473;28;20030;-68
2022/05/07 06:01:16;;;;;;;1.05;0.30;;;18.20;92.90;;;;;;5024390;28;20505;-67
2022/05/07 06:03:43;;;;;;;2.72;0.60;;;18.20;92.90;;;;;;5014488;28;20026;-68
2022/05/07 06:06:10;;;;;;;1.00;0.30;;;18.20;92.90;;;;;;5025237;28;20025;-68
2022/05/07 06:08:37;;;;;;;1.15;0.10;;;18.20;93.30;;;;;;5028797;28;20056;-68
2022/05/07 06:11:05;;;;;;;2.15;0.25;;;18.10;93.80;;;;;;5019075;28;20498;-68
2022/05/07 06:13:33;;;;;;;1.90;0.10;;;18.20;94.20;;;;;;5023904;28;20056;-69
2022/05/07 06:16:00;;;;;;;0.20;0.10;;;18.20;93.80;;;;;;5018392;28;20057;-68
2022/05/07 06:18:29;;;;;;;1.35;0.10;;;18.20;94.20;;;;;;5024398;28;20512;-69
2022/05/07 06:20:56;;;;;;;0.38;0.00;;;18.10;94.30;;;;;;5016550;28;20452;-69
2022/05/07 06:23:23;;;;;;;1.95;0.10;;;18.00;93.50;;;;;;5025614;28;20477;-67
2022/05/07 06:28:36;;;;;;;1.55;0.10;;;17.90;94.20;;;;;;5013944;28;20044;-67
2022/05/07 06:31:03;;;;;;;3.45;0.30;;;17.80;94.30;;;;;;5025058;28;20035;-67
2022/05/07 06:33:32;;;;;;;0.52;0.20;;;17.70;94.60;;;;;;5028997;28;20026;-67
2022/05/07 06:35:59;;;;;;;0.65;0.20;;;17.60;94.90;;;;;;5020350;28;20029;-67
2022/05/07 06:38:26;;;;;;;1.30;0.10;;;17.40;95.00;;;;;;5024619;28;20104;-67
2022/05/07 06:40:56;;;;;;;6.07;0.60;;;17.30;95.40;;;;;;5023074;28;20413;-67
2022/05/07 06:43:23;;;;;;;3.15;0.30;;;17.20;95.20;;;;;;5025101;28;20022;-66
2022/05/07 06:45:51;;;;;;;1.55;0.28;;;17.10;95.50;;;;;;5018759;28;20071;-67
2022/05/07 06:48:18;;;;;;;1.45;0.40;;;17.00;95.40;;;;;;5017814;28;20104;-66
2022/05/07 06:50:45;;;;;;;1.63;0.20;;;16.90;95.60;;;;;;5016547;28;20026;-67
2022/05/07 06:53:13;;;;;;;0.88;0.30;;;16.80;95.50;;;;;;5023255;28;20053;-67
2022/05/07 06:55:55;;;;;;;2.55;0.40;;;16.70;95.20;;;;;;5020534;28;20080;-67
2022/05/07 06:58:27;;;;;;;1.33;0.30;;;16.60;95.30;;;;;;5030787;28;20029;-67
2022/05/07 07:00:54;;;;;;;6.28;1.00;;;16.60;95.60;;;;;;5020254;28;20466;-67
2022/05/07 07:03:23;;;;;;;0.95;0.20;;;16.50;95.80;;;;;;5023996;28;20041;-67
2022/05/07 07:05:52;;;;;;;1.45;0.40;;;16.50;95.80;;;;;;5014673;28;20038;-67
2022/05/07 07:08:20;;;;;;;1.48;0.30;;;16.40;96.00;;;;;;5020351;28;20029;-67
2022/05/07 07:10:47;;;;;;;1.60;0.30;;;16.30;96.10;;;;;;5027213;28;20026;-67
2022/05/07 07:13:16;;;;;;;0.93;0.17;;;16.20;96.30;;;;;;5026218;28;20037;-68
2022/05/07 07:15:44;;;;;;;0.43;0.20;;;16.20;95.90;;;;;;5013142;28;20061;-68
2022/05/07 07:18:12;;;;;;;1.27;0.40;;;16.20;96.40;;;;;;5028253;28;20433;-67
2022/05/07 07:20:44;;;;;;;2.47;0.40;;;16.20;95.90;;;;;;5023377;28;20022;-67
2022/05/07 07:23:11;;;;;;;1.10;0.30;;;16.20;96.00;;;;;;5020834;28;20021;-67
2022/05/07 07:25:43;;;;;;;1.38;0.38;;;16.20;96.00;;;;;;5032284;28;20029;-67
2022/05/07 07:28:12;;;;;;;1.88;0.20;;;16.20;96.20;;;;;;5016035;28;20052;-67
2022/05/07 07:30:40;;;;;;;1.27;0.17;;;16.10;96.20;;;;;;5025125;28;20040;-67
2022/05/07 07:33:07;;;;;;;0.55;0.20;;;16.00;96.30;;;;;;5029785;28;20034;-67
2022/05/07 07:35:34;;;;;;;1.27;0.35;;;16.00;96.20;;;;;;5026897;28;20033;-67
2022/05/07 07:38:02;;;;;;;1.75;0.30;;;16.00;96.20;;;;;;5026562;28;20018;-67
2022/05/07 07:40:31;;;;;;;3.25;0.40;;;15.90;96.50;;;;;;5028344;28;20036;-68
2022/05/07 07:42:58;;;;;;;1.65;0.40;;;15.90;96.50;;;;;;5033369;28;20580;-68
2022/05/07 07:48:11;;;;;;;3.53;0.55;;;15.80;97.00;;;;;;5037594;28;20055;-66
2022/05/07 07:50:39;;;;;;;2.47;0.50;;;15.80;97.00;;;;;;5026571;28;20493;-67
2022/05/07 07:53:09;;;;;;;2.47;0.73;;;15.70;97.00;;;;;;5049604;28;20128;-67
2022/05/07 07:55:37;;;;;;;2.35;0.60;;;15.70;96.90;;;;;;5022651;28;20416;-67
2022/05/07 07:58:11;;;;;;;2.90;0.77;;;15.70;96.80;;;;;;5021719;28;20038;-67
2022/05/07 08:00:38;;;;;;;1.17;0.60;;;15.70;96.90;;;;;;5034787;28;20033;-68
2022/05/07 08:03:15;;;;;;;2.42;0.60;;;15.70;97.00;;;;;;5028388;28;20036;-68
2022/05/07 08:05:45;;;;;;;1.02;0.40;;;15.70;96.80;;;;;;5018367;28;20479;-68
2022/05/07 08:13:47;;;;;;;1.30;0.70;;;15.70;96.30;;;;;;5037771;28;20037;-67
2022/05/07 08:16:19;;;;;;;3.67;0.75;;;15.70;96.50;;;;;;5043891;28;20029;-67
2022/05/07 08:18:47;;;;;;;1.88;0.60;;;15.60;96.50;;;;;;5032102;28;20025;-67
2022/05/07 08:21:14;;;;;;;1.77;0.60;;;15.60;96.60;;;;;;5027787;28;20030;-67
2022/05/07 08:23:42;;;;;;;3.25;0.50;;;15.60;96.50;;;;;;5025023;28;20449;-67
2022/05/07 08:26:10;;;;;;;2.25;0.52;;;15.70;96.70;;;;;;5035210;28;20037;-67
2022/05/07 08:28:39;;;;;;;4.05;0.43;;;15.60;96.50;;;;;;5034505;28;20036;-67
2022/05/07 08:31:07;;;;;;;2.00;1.00;;;15.70;96.50;;;;;;5041396;28;20519;-67
2022/05/07 08:33:36;;;;;;;3.20;1.10;;;15.70;96.50;;;;;;5028121;28;20030;-66
2022/05/07 08:36:03;;;;;;;0.88;0.35;;;15.70;96.80;;;;;;5025624;28;20026;-67
2022/05/07 08:38:31;;;;;;;2.80;0.65;;;15.50;96.80;;;;;;5030983;28;20030;-67
2022/05/07 08:41:03;;;;;;;1.67;0.70;;;15.60;97.10;;;;;;5051077;28;20417;-67
2022/05/07 08:43:36;;;;;;;2.33;0.80;;;15.50;97.00;;;;;;5037963;28;20109;-67
2022/05/07 08:46:24;;;;;;;4.22;0.90;;;15.40;97.10;;;;;;5033582;28;20053;-67
2022/05/07 08:48:51;;;;;;;3.03;0.60;;;15.50;97.00;;;;;;5035040;28;20428;-66
2022/05/07 08:51:22;;;;;;;3.40;0.60;;;15.50;97.40;;;;;;5027500;28;20052;-67
2022/05/07 08:53:53;;;;;;;6.47;0.82;;;15.40;97.30;;;;;;5038755;28;20022;-67
2022/05/07 08:56:22;;;;;;;2.33;0.85;;;15.40;97.50;;;;;;5032823;28;20033;-68
2022/05/07 08:58:51;;;;;;;1.95;0.50;;;15.40;96.90;;;;;;5027593;28;20393;-67
2022/05/07 09:01:18;;;;;;;3.55;0.80;;;15.40;96.90;;;;;;5024427;28;20056;-66
2022/05/07 09:03:48;;;;;;;2.53;1.00;;;15.40;97.00;;;;;;5028639;28;20036;-66
2022/05/07 09:06:19;;;;;;;3.53;0.80;;;15.30;97.40;;;;;;5027655;28;20028;-66
2022/05/07 09:08:47;;;;;;;1.05;0.50;;;15.30;96.90;;;;;;5047608;28;20026;-66
2022/05/07 09:11:16;;;;;;;0.98;0.45;;;15.40;96.70;;;;;;5040895;28;20566;-66
2022/05/07 09:13:46;;;;;;;1.10;0.35;;;15.40;96.50;;;;;;5027602;28;20029;-66
2022/05/07 09:16:14;;;;;;;1.27;0.50;;;15.40;96.60;;;;;;5030644;28;20036;-67
2022/05/07 09:18:50;;;;;;;4.95;1.13;;;15.30;96.70;;;;;;5037334;28;20374;-67
2022/05/07 09:21:24;;;;;;;2.33;0.80;;;15.30;96.70;;;;;;5047134;28;20033;-66
2022/05/07 09:24:05;;;;;;;4.38;2.05;;;15.30;96.90;;;;;;5026090;28;20030;-66
2022/05/07 09:26:34;;;;;;;1.65;0.65;;;15.30;96.90;;;;;;5021138;28;20073;-66
2022/05/07 09:29:03;;;;;;;1.35;0.60;;;15.30;96.80;;;;;;5039561;28;20061;-66
2022/05/07 09:31:32;;;;;;;1.30;0.50;;;15.30;96.80;;;;;;5025756;28;20029;-68
2022/05/07 09:36:54;;;;;;;1.42;0.57;;;15.30;96.80;;;;;;5036112;28;20043;-67
2022/05/07 09:39:21;;;;;;;3.00;0.90;;;15.30;96.70;;;;;;5045693;28;20045;-67
2022/05/07 09:41:59;;;;;;;2.05;0.80;;;15.20;96.90;;;;;;5043944;28;20058;-66
2022/05/07 09:44:28;;;;;;;3.85;0.93;;;15.20;96.80;;;;;;5028275;28;20030;-66
2022/05/07 09:46:59;;;;;;;5.18;0.93;;;15.10;97.00;;;;;;5031169;28;20413;-66
2022/05/07 09:49:28;;;;;;;1.85;0.60;;;15.10;97.20;;;;;;5028889;28;20048;-66
2022/05/07 09:51:56;;;;;;;2.63;0.80;;;15.10;96.80;;;;;;5038223;28;20402;-66
2022/05/07 10:00:01;;;;;;;2.50;0.93;;;15.10;97.00;;;;;;5035719;28;20091;-66
2022/05/07 10:02:53;;;;;;;3.50;1.10;;;15.00;97.00;;;;;;5045570;28;20435;-66
2022/05/07 10:05:49;;;;;;;2.70;0.90;;;15.00;97.60;;;;;;5027985;28;20037;-66
2022/05/07 10:08:53;;;;;;;1.55;0.60;;;14.90;98.30;;;;;;5026618;28;20057;-66
2022/05/07 10:11:22;;;;;;;2.67;0.82;;;14.80;97.60;;;;;;5026736;28;20374;-67
2022/05/07 10:13:58;;;;;;;1.90;0.70;;;14.90;97.60;;;;;;5036102;28;20029;-66
2022/05/07 10:16:30;;;;;;;5.10;0.80;;;14.80;97.30;;;;;;5043140;28;20408;-67
2022/05/07 10:19:09;;;;;;;1.20;0.52;;;14.80;97.90;;;;;;5036476;28;20424;-66
2022/05/07 10:21:36;;;;;;;2.33;0.75;;;14.70;97.80;;;;;;5027211;28;20061;-66
2022/05/07 10:24:05;;;;;;;1.83;0.60;;;14.70;98.00;;;;;;5031680;28;20493;-66
2022/05/07 10:26:46;;;;;;;3.00;0.60;;;14.80;97.80;;;;;;5040962;28;20075;-66
2022/05/07 10:29:26;;;;;;;4.35;1.38;;;14.70;98.10;;;;;;5026051;28;20029;-66
2022/05/07 10:32:04;;;;;;;5.13;1.70;;;14.60;98.40;;;;;;5038425;28;20134;-66
2022/05/07 10:34:31;;;;;;;5.30;1.52;;;14.60;98.40;;;;;;5028306;28;20068;-66
2022/05/07 10:37:07;;;;;;;2.90;1.00;;;14.60;98.30;;;;;;5032184;28;20021;-67
2022/05/07 10:39:38;;;;;;;3.10;0.98;;;14.60;98.40;;;;;;5043830;28;20431;-66
2022/05/07 10:42:18;;;;;;;1.45;0.88;;;14.60;98.50;;;;;;5025714;28;20057;-67
2022/05/07 10:44:46;;;;;;;2.58;1.23;;;14.60;98.80;;;;;;5035420;28;20025;-66
2022/05/07 10:47:15;;;;;;;1.88;0.88;;;14.60;98.80;;;;;;5038859;28;20051;-67
2022/05/07 10:50:09;;;;;;;2.08;0.70;;;14.70;98.60;;;;;;5041977;28;20034;-66
2022/05/07 10:52:36;;;;;;;2.85;0.68;;;14.50;98.80;;;;;;5042233;28;20099;-66
2022/05/07 10:55:25;;;;;;;1.48;0.60;;;14.60;98.70;;;;;;5033901;28;20013;-66
2022/05/07 10:57:53;;;;;;;2.88;0.80;;;14.50;99.40;;;;;;5017765;28;20033;-66
2022/05/07 11:00:23;;;;;;;2.33;0.90;;;14.50;99.30;;;;;;5030153;28;20032;-66
2022/05/07 11:02:56;;;;;;;1.88;0.52;;;14.50;99.20;;;;;;5029342;28;20029;-67
2022/05/07 11:05:36;;;;;;;3.53;1.70;;;14.50;99.90;;;;;;5031345;28;20079;-67
2022/05/07 11:08:05;;;;;;;1.95;0.65;;;14.40;99.60;;;;;;5029253;28;20685;-67
2022/05/07 11:10:32;;;;;;;1.88;0.60;;;14.40;99.30;;;;;;5032860;28;20030;-66
2022/05/07 11:13:13;;;;;;;3.72;1.00;;;14.40;98.90;;;;;;5030052;28;20025;-66
2022/05/07 11:15:41;;;;;;;5.15;0.80;;;14.30;99.00;;;;;;5029537;28;20030;-66
2022/05/07 11:18:17;;;;;;;2.28;0.80;;;14.30;98.80;;;;;;5016461;28;20033;-66
2022/05/07 11:20:45;;;;;;;2.72;0.85;;;14.30;98.60;;;;;;5019268;28;20018;-66
2022/05/07 11:23:15;;;;;;;2.20;0.70;;;14.30;98.70;;;;;;5034896;28;20104;-66
2022/05/07 11:25:45;;;;;;;3.60;0.75;;;14.40;98.80;;;;;;5017086;28;20022;-67
2022/05/07 11:28:12;;;;;;;3.90;0.80;;;14.30;99.00;;;;;;5032089;28;20038;-66
2022/05/07 11:30:53;;;;;;;3.92;1.00;;;14.30;99.50;;;;;;5033520;28;20052;-67
2022/05/07 11:33:26;;;;;;;4.45;0.80;;;14.20;99.90;;;;;;5023772;28;20064;-67
2022/05/07 11:36:08;;;;;;;2.00;0.90;;;14.00;99.90;;;;;;5016797;28;20044;-67
2022/05/07 11:38:39;;;;;;;3.42;1.27;;;13.90;99.90;;;;;;5018156;28;20029;-67
2022/05/07 11:41:14;;;;;;;6.53;4.03;;;13.90;99.90;;;;;;5022538;28;20077;-67
2022/05/07 11:46:34;;;;;;;8.48;5.38;;;13.80;99.90;;;;;;5031455;28;20036;-68
2022/05/07 11:49:07;;;;;;;4.05;3.00;;;13.80;99.90;;;;;;5030858;28;20017;-68
2022/05/07 11:51:34;;;;;;;5.00;1.58;;;13.80;99.90;;;;;;5026604;28;20046;-67
2022/05/07 11:54:11;;;;;;;4.88;1.23;;;13.60;99.90;;;;;;5021881;28;20479;-67
2022/05/07 11:56:48;;;;;;;5.28;1.55;;;13.60;99.90;;;;;;5027888;28;20540;-67
2022/05/07 11:59:15;;;;;;;3.17;2.00;;;13.60;99.90;;;;;;5021668;28;20037;-67
2022/05/07 12:01:48;;;;;;;4.45;2.75;;;13.70;99.90;;;;;;5024363;28;20036;-67
2022/05/07 12:04:15;;;;;;;6.57;2.92;;;13.70;99.90;;;;;;5027264;28;20033;-67
2022/05/07 12:06:53;;;;;;;4.25;3.08;;;13.60;99.90;;;;;;5025934;28;20076;-66
2022/05/07 12:09:21;;;;;;;5.30;3.55;;;13.60;99.90;;;;;;5023638;28;20083;-67
2022/05/07 12:11:49;;;;;;;5.68;3.47;;;13.50;99.90;;;;;;5021560;28;20037;-67
2022/05/07 12:14:16;;;;;;;4.93;3.83;;;13.60;99.90;;;;;;5023558;28;20030;-67
2022/05/07 12:19:34;;;;;;;9.50;7.88;;;13.50;99.90;;;;;;5015730;28;20064;-67
2022/05/07 12:30:18;;;;;;;6.22;2.78;;;13.40;99.90;;;;;;5015830;28;20045;-67
2022/05/07 12:32:46;;;;;;;2.97;1.60;;;13.20;99.90;;;;;;5030081;28;20117;-67
2022/05/07 12:35:13;;;;;;;2.85;1.20;;;13.50;99.90;;;;;;5029884;28;20030;-68
2022/05/07 12:37:41;;;;;;;1.75;0.80;;;13.30;99.90;;;;;;5027253;28;20087;-68
2022/05/07 12:40:09;;;;;;;8.88;1.55;;;13.10;99.90;;;;;;5024374;28;20115;-68
2022/05/07 12:42:36;;;;;;;4.82;2.85;;;13.20;99.90;;;;;;5025978;28;20057;-67
2022/05/07 12:45:04;;;;;;;4.78;2.50;;;13.20;99.90;;;;;;5024022;28;20041;-68
2022/05/07 12:47:31;;;;;;;3.72;1.90;;;13.20;99.90;;;;;;5024419;28;20032;-67
2022/05/07 12:49:58;;;;;;;3.65;2.10;;;13.20;99.90;;;;;;5019088;28;20132;-67
2022/05/07 12:52:26;;;;;;;4.53;2.70;;;13.20;99.90;;;;;;5029856;28;20045;-67
2022/05/07 12:54:53;;;;;;;4.80;2.58;;;13.10;99.90;;;;;;5020604;28;20032;-68
2022/05/07 12:57:20;;;;;;;2.78;1.60;;;13.00;99.90;;;;;;5026634;28;20068;-69
2022/05/07 12:59:48;;;;;;;3.72;1.25;;;13.00;99.90;;;;;;5024964;28;20393;-68
2022/05/07 13:02:15;;;;;;;4.00;1.23;;;13.00;99.90;;;;;;5032404;28;20025;-68
2022/05/07 13:04:42;;;;;;;4.22;1.88;;;13.00;99.90;;;;;;5029577;28;20030;-68
2022/05/07 13:07:10;;;;;;;3.25;1.48;;;12.90;99.90;;;;;;5028499;28;20028;-68
2022/05/07 13:09:37;;;;;;;5.10;1.75;;;12.80;99.90;;;;;;5027251;28;20068;-68
2022/05/07 13:12:05;;;;;;;2.83;1.08;;;12.60;99.90;;;;;;5034611;28;20021;-68
2022/05/07 13:14:35;;;;;;;3.10;1.45;;;12.60;99.90;;;;;;5033218;28;20555;-68
2022/05/07 13:17:03;;;;;;;3.08;1.48;;;12.60;99.90;;;;;;5032391;28;20470;-68
2022/05/07 13:19:30;;;;;;;2.30;1.67;;;12.60;99.90;;;;;;5032162;28;20030;-69
2022/05/07 13:21:58;;;;;;;4.50;2.63;;;12.60;99.90;;;;;;5035434;28;20029;-68
2022/05/07 13:24:25;;;;;;;4.03;1.30;;;12.70;99.90;;;;;;5026578;28;20030;-68
2022/05/07 13:26:53;;;;;;;3.63;1.27;;;12.70;99.90;;;;;;5035009;28;20026;-68
2022/05/07 13:29:20;;;;;;;6.13;1.35;;;12.80;99.90;;;;;;5033061;28;20072;-69
2022/05/07 13:31:48;;;;;;;3.92;1.30;;;12.70;99.90;;;;;;5040916;28;20071;-68
2022/05/07 13:34:15;;;;;;;4.50;1.38;;;12.70;99.90;;;;;;5035317;28;20041;-67
2022/05/07 13:36:43;;;;;;;4.53;1.10;;;12.80;99.90;;;;;;5038897;28;20493;-68
2022/05/07 13:39:10;;;;;;;2.30;1.13;;;12.60;99.90;;;;;;5025433;28;20062;-68
2022/05/07 13:41:37;;;;;;;3.10;0.80;;;12.50;99.90;;;;;;5027507;28;20418;-68
2022/05/07 13:44:10;;;;;;;2.80;0.93;;;12.60;99.90;;;;;;5028641;28;20061;-67
2022/05/07 13:46:41;;;;;;;4.20;1.20;;;12.60;99.90;;;;;;5026070;28;20034;-68